Porthos — FM2710 — position and weather

sailwx.info

Track history (hours):
 
Tides and Currents Weather Stations Pressure Air Temp Water Temp Dewpoint Dewpoint Depression Visibility Wind Speed Wind Dir Waves Ship Positions

Porthos

Last reported at 2017-Jan-16 16:33 UTC. Time now 2017-Jan-17 00:51 UTC.
Position N 51°37' E 006°35'.

Length 39 m; draft 3 m.

MMSI: 226002650.

Date/timePositionNaut miles runAvg speedWind from/ knotsBaromVisibWave heightAir tempDewpointWater temp
2017-Jan-16 16:33N 51°37' E 006°35'4 3.6
2017-Jan-16 15:31N 51°40' E 006°31'6 4.3
2017-Jan-16 14:08N 51°45' E 006°25'3 4.7
2017-Jan-16 13:33N 51°45' E 006°21'5 5.4
2017-Jan-16 12:33N 51°49' E 006°16'5 5.4
2017-Jan-16 11:33N 51°51' E 006°07'1 1.1
2017-Jan-16 10:33N 51°51' E 006°06'0 0.0
2017-Jan-16 09:28N 51°51' E 006°06'0 0.0
2017-Jan-16 08:30N 51°51' E 006°06'0 0.0
2017-Jan-16 07:34N 51°51' E 006°06'0 0.0
2017-Jan-16 06:33N 51°51' E 006°06'0 0.0
2017-Jan-16 05:34N 51°51' E 006°06'0 0.0
2017-Jan-16 04:34N 51°51' E 006°06'0 0.0
2017-Jan-16 03:33N 51°51' E 006°06'0 0.0
2017-Jan-16 02:33N 51°51' E 006°06'0 0.0
2017-Jan-16 01:30N 51°51' E 006°06'0 0.0
2017-Jan-16 00:33N 51°51' E 006°06'0 0.0
2017-Jan-15 23:34N 51°51' E 006°06'0 0.0
2017-Jan-15 22:33N 51°51' E 006°06'0 0.0
2017-Jan-15 21:33N 51°51' E 006°06'0 0.0
2017-Jan-15 20:33N 51°51' E 006°06'0 0.0
2017-Jan-15 19:33N 51°51' E 006°06'0 0.0
2017-Jan-15 18:33N 51°51' E 006°06'3 3.5
2017-Jan-15 17:33N 51°53' E 006°00'5 4.5
2017-Jan-15 16:33N 51°52' E 005°53'5 4.9
2017-Jan-15 15:33N 51°53' E 005°45'28 5.5
2017-Jan-15 10:29N 51°49' E 005°01'6 6.6
2017-Jan-15 09:33N 51°48' E 004°51'6 6.4
2017-Jan-15 08:33N 51°44' E 004°43'31 1.7
2017-Jan-14 14:20N 51°27' E 004°01'810.1
2017-Jan-14 13:33N 51°21' E 003°53'3 2.5
2017-Jan-14 12:31N 51°20' E 003°49'0 0.1
2017-Jan-14 11:33N 51°20' E 003°49'0 0.1
2017-Jan-14 10:25N 51°20' E 003°49'0 0.0
2017-Jan-14 09:31N 51°20' E 003°49'0 0.2
2017-Jan-14 08:34N 51°20' E 003°49'7 7.3
2017-Jan-14 07:33N 51°12' E 003°48'6 6.1
2017-Jan-14 06:32N 51°06' E 003°44'3 2.5
2017-Jan-14 05:28N 51°05' E 003°40'0 0.0
2017-Jan-14 04:28N 51°05' E 003°40'0 0.0
2017-Jan-14 03:28N 51°05' E 003°40'0 0.0
2017-Jan-13 23:28N 51°05' E 003°40'0 0.0
2017-Jan-13 22:28N 51°05' E 003°40'0 0.0
2017-Jan-13 21:28N 51°05' E 003°40'0 0.0
2017-Jan-13 20:28N 51°05' E 003°40'0 0.0
2017-Jan-13 19:26N 51°05' E 003°40'0 0.0
2017-Jan-13 18:32N 51°05' E 003°40'0 0.0
2017-Jan-13 17:32N 51°05' E 003°40'0 0.0
2017-Jan-13 16:32N 51°05' E 003°40'0 0.0
2017-Jan-13 15:32N 51°05' E 003°40'0 0.0
2017-Jan-13 14:26N 51°05' E 003°40'0 0.0
2017-Jan-13 13:32N 51°05' E 003°40'0 0.0
2017-Jan-13 12:26N 51°05' E 003°40'0 0.0
2017-Jan-13 11:32N 51°05' E 003°40'0 0.0
2017-Jan-13 10:32N 51°05' E 003°40'0 0.0
2017-Jan-13 09:26N 51°05' E 003°40'0 0.0
2017-Jan-13 08:32N 51°05' E 003°40'0 0.0
2017-Jan-13 07:32N 51°05' E 003°40'0 0.0
2017-Jan-13 06:32N 51°05' E 003°40'0 0.0
2017-Jan-13 05:32N 51°05' E 003°40'0 0.0
2017-Jan-13 04:29N 51°05' E 003°40'0 0.0
2017-Jan-13 03:23N 51°05' E 003°40'0 0.0
2017-Jan-13 02:29N 51°05' E 003°40'0 0.0
2017-Jan-13 01:29N 51°05' E 003°40'0 0.0
2017-Jan-13 00:29N 51°05' E 003°40'0 0.0
2017-Jan-12 23:29N 51°05' E 003°40'0 0.0
2017-Jan-12 22:29N 51°05' E 003°40'0 0.0
2017-Jan-12 21:29N 51°05' E 003°40'0 0.0
2017-Jan-12 20:32N 51°05' E 003°40'0 0.0
2017-Jan-12 19:29N 51°05' E 003°40'0 0.0
2017-Jan-12 18:26N 51°05' E 003°40'0 0.0
2017-Jan-12 17:26N 51°05' E 003°40'0 0.0
2017-Jan-12 16:26N 51°05' E 003°40'0 0.0
2017-Jan-12 15:26N 51°05' E 003°40'0 0.0
2017-Jan-12 14:29N 51°05' E 003°40'0 0.0
2017-Jan-12 13:29N 51°05' E 003°40'0 0.0
2017-Jan-12 12:29N 51°05' E 003°40'0 0.0
2017-Jan-12 11:26N 51°05' E 003°40'0 0.0
2017-Jan-12 10:32N 51°05' E 003°40'0 0.0
2017-Jan-12 09:32N 51°05' E 003°40'0 0.2
2017-Jan-12 08:26N 51°05' E 003°40'4 4.3
2017-Jan-12 07:33N 51°04' E 003°34'  
Track history (hours):
 
Tides and Currents Weather Stations Pressure Air Temp Water Temp Dewpoint Dewpoint Depression Visibility Wind Speed Wind Dir Waves Ship Positions

Porthos

Last reported at 2017-Jan-16 16:33 UTC. Time now 2017-Jan-17 00:51 UTC.
Position N 51°37' E 006°35'.

Length 39 m; draft 3 m.

MMSI: 226002650.

Date/timePositionNaut miles runAvg speedWind from/ knotsBaromVisibWave heightAir tempDewpointWater temp
2017-Jan-16 16:33N 51°37' E 006°35'4 3.6
2017-Jan-16 15:31N 51°40' E 006°31'6 4.3
2017-Jan-16 14:08N 51°45' E 006°25'3 4.7
2017-Jan-16 13:33N 51°45' E 006°21'5 5.4
2017-Jan-16 12:33N 51°49' E 006°16'5 5.4
2017-Jan-16 11:33N 51°51' E 006°07'1 1.1
2017-Jan-16 10:33N 51°51' E 006°06'0 0.0
2017-Jan-16 09:28N 51°51' E 006°06'0 0.0
2017-Jan-16 08:30N 51°51' E 006°06'0 0.0
2017-Jan-16 07:34N 51°51' E 006°06'0 0.0
2017-Jan-16 06:33N 51°51' E 006°06'0 0.0
2017-Jan-16 05:34N 51°51' E 006°06'0 0.0
2017-Jan-16 04:34N 51°51' E 006°06'0 0.0
2017-Jan-16 03:33N 51°51' E 006°06'0 0.0
2017-Jan-16 02:33N 51°51' E 006°06'0 0.0
2017-Jan-16 01:30N 51°51' E 006°06'0 0.0
2017-Jan-16 00:33N 51°51' E 006°06'0 0.0
2017-Jan-15 23:34N 51°51' E 006°06'0 0.0
2017-Jan-15 22:33N 51°51' E 006°06'0 0.0
2017-Jan-15 21:33N 51°51' E 006°06'0 0.0
2017-Jan-15 20:33N 51°51' E 006°06'0 0.0
2017-Jan-15 19:33N 51°51' E 006°06'0 0.0
2017-Jan-15 18:33N 51°51' E 006°06'3 3.5
2017-Jan-15 17:33N 51°53' E 006°00'5 4.5
2017-Jan-15 16:33N 51°52' E 005°53'5 4.9
2017-Jan-15 15:33N 51°53' E 005°45'28 5.5
2017-Jan-15 10:29N 51°49' E 005°01'6 6.6
2017-Jan-15 09:33N 51°48' E 004°51'6 6.4
2017-Jan-15 08:33N 51°44' E 004°43'31 1.7
2017-Jan-14 14:20N 51°27' E 004°01'810.1
2017-Jan-14 13:33N 51°21' E 003°53'3 2.5
2017-Jan-14 12:31N 51°20' E 003°49'0 0.1
2017-Jan-14 11:33N 51°20' E 003°49'0 0.1
2017-Jan-14 10:25N 51°20' E 003°49'0 0.0
2017-Jan-14 09:31N 51°20' E 003°49'0 0.2
2017-Jan-14 08:34N 51°20' E 003°49'7 7.3
2017-Jan-14 07:33N 51°12' E 003°48'6 6.1
2017-Jan-14 06:32N 51°06' E 003°44'3 2.5
2017-Jan-14 05:28N 51°05' E 003°40'0 0.0
2017-Jan-14 04:28N 51°05' E 003°40'0 0.0
2017-Jan-14 03:28N 51°05' E 003°40'0 0.0
2017-Jan-13 23:28N 51°05' E 003°40'0 0.0
2017-Jan-13 22:28N 51°05' E 003°40'0 0.0
2017-Jan-13 21:28N 51°05' E 003°40'0 0.0
2017-Jan-13 20:28N 51°05' E 003°40'0 0.0
2017-Jan-13 19:26N 51°05' E 003°40'0 0.0
2017-Jan-13 18:32N 51°05' E 003°40'0 0.0
2017-Jan-13 17:32N 51°05' E 003°40'0 0.0
2017-Jan-13 16:32N 51°05' E 003°40'0 0.0
2017-Jan-13 15:32N 51°05' E 003°40'0 0.0
2017-Jan-13 14:26N 51°05' E 003°40'0 0.0
2017-Jan-13 13:32N 51°05' E 003°40'0 0.0
2017-Jan-13 12:26N 51°05' E 003°40'0 0.0
2017-Jan-13 11:32N 51°05' E 003°40'0 0.0
2017-Jan-13 10:32N 51°05' E 003°40'0 0.0
2017-Jan-13 09:26N 51°05' E 003°40'0 0.0
2017-Jan-13 08:32N 51°05' E 003°40'0 0.0
2017-Jan-13 07:32N 51°05' E 003°40'0 0.0
2017-Jan-13 06:32N 51°05' E 003°40'0 0.0
2017-Jan-13 05:32N 51°05' E 003°40'0 0.0
2017-Jan-13 04:29N 51°05' E 003°40'0 0.0
2017-Jan-13 03:23N 51°05' E 003°40'0 0.0
2017-Jan-13 02:29N 51°05' E 003°40'0 0.0
2017-Jan-13 01:29N 51°05' E 003°40'0 0.0
2017-Jan-13 00:29N 51°05' E 003°40'0 0.0
2017-Jan-12 23:29N 51°05' E 003°40'0 0.0
2017-Jan-12 22:29N 51°05' E 003°40'0 0.0
2017-Jan-12 21:29N 51°05' E 003°40'0 0.0
2017-Jan-12 20:32N 51°05' E 003°40'0 0.0
2017-Jan-12 19:29N 51°05' E 003°40'0 0.0
2017-Jan-12 18:26N 51°05' E 003°40'0 0.0
2017-Jan-12 17:26N 51°05' E 003°40'0 0.0
2017-Jan-12 16:26N 51°05' E 003°40'0 0.0
2017-Jan-12 15:26N 51°05' E 003°40'0 0.0
2017-Jan-12 14:29N 51°05' E 003°40'0 0.0
2017-Jan-12 13:29N 51°05' E 003°40'0 0.0
2017-Jan-12 12:29N 51°05' E 003°40'0 0.0
2017-Jan-12 11:26N 51°05' E 003°40'0 0.0
2017-Jan-12 10:32N 51°05' E 003°40'0 0.0
2017-Jan-12 09:32N 51°05' E 003°40'0 0.2
2017-Jan-12 08:26N 51°05' E 003°40'4 4.3
2017-Jan-12 07:33N 51°04' E 003°34'  

Dump ship's entire track history